LOT7LG LUKK-EPWA
Flight info
| Callsign | LOT7LG |
|---|---|
| Flight time | 1h 27m |
| Altitude | 38000 |
| Route | NUNTA DCT BUZZE DCT KARIL DCT KENIN/N0442F340 DCT ORTEB DCT KONZI DCT LOGDA |
| Aircraft | B738/M-SDE2E3FGHIRWXY/LB1 |
Departure
| Time | 2026-05-06 16:09 |
|---|---|
| Airport | Chişinău International Airport (LUKK) |
Arrival
| Time | 2026-05-06 17:37 |
|---|---|
| Airport | Warsaw Chopin Airport (EPWA) |
| Time | Latitude | Longitude | Altitude | Speed | Heading |
|---|---|---|---|---|---|
| 2026-05-06 15:35 | 46.93361 | 28.93668 | 315 ft | 0 kts | 10° |
| 2026-05-06 16:03 | 46.93363 | 28.93669 | 315 ft | 1 kts | 10° |
| 2026-05-06 16:03 | 46.93388 | 28.93683 | 314 ft | 7 kts | 41° |
| 2026-05-06 16:04 | 46.93393 | 28.93793 | 312 ft | 14 kts | 104° |
| 2026-05-06 16:04 | 46.93301 | 28.93830 | 312 ft | 17 kts | 188° |
| 2026-05-06 16:04 | 46.93169 | 28.93803 | 312 ft | 13 kts | 188° |
| 2026-05-06 16:04 | 46.93119 | 28.93862 | 310 ft | 11 kts | 95° |
| 2026-05-06 16:05 | 46.93108 | 28.93989 | 307 ft | 14 kts | 98° |
| 2026-05-06 16:05 | 46.93093 | 28.94162 | 303 ft | 18 kts | 97° |
| 2026-05-06 16:05 | 46.93075 | 28.94360 | 299 ft | 20 kts | 98° |
| 2026-05-06 16:05 | 46.93058 | 28.94578 | 294 ft | 22 kts | 97° |
| 2026-05-06 16:06 | 46.93037 | 28.94818 | 289 ft | 26 kts | 97° |
| 2026-05-06 16:06 | 46.93012 | 28.95075 | 283 ft | 14 kts | 115° |
| 2026-05-06 16:06 | 46.92927 | 28.95111 | 282 ft | 16 kts | 178° |
| 2026-05-06 16:06 | 46.92829 | 28.95107 | 281 ft | 7 kts | 210° |
| 2026-05-06 16:07 | 46.92818 | 28.95069 | 282 ft | 0 kts | 270° |
| 2026-05-06 16:08 | 46.92818 | 28.95065 | 282 ft | 2 kts | 270° |
| 2026-05-06 16:08 | 46.92810 | 28.94743 | 288 ft | 66 kts | 268° |
| 2026-05-06 16:08 | 46.92790 | 28.93761 | 313 ft | 125 kts | 268° |
| 2026-05-06 16:08 | 46.92766 | 28.92231 | 364 ft | 170 kts | 266° |
| 2026-05-06 16:09 | 46.92745 | 28.90512 | 986 ft | 169 kts | 265° |
| 2026-05-06 16:09 | 46.92720 | 28.88757 | 1512 ft | 180 kts | 266° |
| 2026-05-06 16:09 | 46.92740 | 28.86954 | 2165 ft | 181 kts | 268° |
| 2026-05-06 16:09 | 46.92780 | 28.85062 | 2605 ft | 194 kts | 268° |
| 2026-05-06 16:10 | 46.92810 | 28.82960 | 2936 ft | 216 kts | 268° |
| 2026-05-06 16:10 | 46.92831 | 28.80692 | 3358 ft | 235 kts | 268° |
| 2026-05-06 16:10 | 46.92840 | 28.78233 | 3881 ft | 249 kts | 268° |
| 2026-05-06 16:10 | 46.92837 | 28.75652 | 4399 ft | 263 kts | 268° |
| 2026-05-06 16:11 | 46.92822 | 28.72939 | 4961 ft | 275 kts | 269° |
| 2026-05-06 16:11 | 46.92792 | 28.70115 | 5652 ft | 281 kts | 269° |
| 2026-05-06 16:11 | 46.92891 | 28.67267 | 6333 ft | 286 kts | 283° |
| 2026-05-06 16:11 | 46.93510 | 28.64500 | 7119 ft | 287 kts | 293° |
| 2026-05-06 16:12 | 46.94288 | 28.61834 | 7870 ft | 289 kts | 295° |
| 2026-05-06 16:12 | 46.95091 | 28.59132 | 8643 ft | 291 kts | 294° |
| 2026-05-06 16:12 | 46.95761 | 28.56371 | 9389 ft | 294 kts | 289° |
| 2026-05-06 16:12 | 46.96341 | 28.53488 | 10120 ft | 297 kts | 288° |
| 2026-05-06 16:13 | 46.96898 | 28.50570 | 10659 ft | 307 kts | 287° |
| 2026-05-06 16:13 | 46.97480 | 28.47518 | 11305 ft | 313 kts | 287° |
| 2026-05-06 16:13 | 46.98062 | 28.44472 | 11985 ft | 317 kts | 287° |
| 2026-05-06 16:13 | 46.98661 | 28.41350 | 12715 ft | 320 kts | 288° |
| 2026-05-06 16:14 | 46.99258 | 28.38231 | 13420 ft | 324 kts | 288° |
| 2026-05-06 16:14 | 46.99868 | 28.35040 | 14176 ft | 326 kts | 287° |
| 2026-05-06 16:14 | 47.00477 | 28.31856 | 14907 ft | 329 kts | 287° |
| 2026-05-06 16:14 | 47.01084 | 28.28671 | 15635 ft | 331 kts | 287° |
| 2026-05-06 16:15 | 47.01709 | 28.25385 | 16351 ft | 335 kts | 287° |
| 2026-05-06 16:15 | 47.02327 | 28.22124 | 17038 ft | 338 kts | 287° |
| 2026-05-06 16:15 | 47.02949 | 28.18829 | 17710 ft | 341 kts | 287° |
| 2026-05-06 16:15 | 47.03582 | 28.15470 | 18376 ft | 344 kts | 287° |
| 2026-05-06 16:16 | 47.04221 | 28.12085 | 19038 ft | 347 kts | 287° |
| 2026-05-06 16:16 | 47.04859 | 28.08695 | 19673 ft | 350 kts | 287° |
| 2026-05-06 16:16 | 47.05514 | 28.05226 | 20309 ft | 353 kts | 287° |
| 2026-05-06 16:16 | 47.06166 | 28.01779 | 20937 ft | 355 kts | 287° |
| 2026-05-06 16:17 | 47.06845 | 27.98285 | 21527 ft | 358 kts | 290° |
| 2026-05-06 16:17 | 47.07720 | 27.94862 | 22122 ft | 359 kts | 294° |
| 2026-05-06 16:17 | 47.08678 | 27.91511 | 22680 ft | 362 kts | 294° |
| 2026-05-06 16:17 | 47.09629 | 27.88070 | 23235 ft | 366 kts | 293° |
| 2026-05-06 16:18 | 47.10508 | 27.84588 | 23758 ft | 370 kts | 290° |
| 2026-05-06 16:18 | 47.11240 | 27.80934 | 24304 ft | 373 kts | 287° |
| 2026-05-06 16:18 | 47.11839 | 27.77289 | 24836 ft | 375 kts | 284° |
| 2026-05-06 16:18 | 47.12402 | 27.73518 | 25346 ft | 378 kts | 284° |
| 2026-05-06 16:19 | 47.12940 | 27.69794 | 25841 ft | 379 kts | 284° |
| 2026-05-06 16:19 | 47.13492 | 27.65972 | 26324 ft | 381 kts | 284° |
| 2026-05-06 16:19 | 47.14044 | 27.62179 | 26812 ft | 383 kts | 284° |
| 2026-05-06 16:19 | 47.14600 | 27.58399 | 27292 ft | 384 kts | 284° |
| 2026-05-06 16:20 | 47.15167 | 27.54564 | 27718 ft | 386 kts | 285° |
| 2026-05-06 16:20 | 47.15741 | 27.50699 | 28179 ft | 387 kts | 285° |
| 2026-05-06 16:20 | 47.16318 | 27.46821 | 28599 ft | 389 kts | 285° |
| 2026-05-06 16:20 | 47.16890 | 27.42977 | 28989 ft | 392 kts | 285° |
| 2026-05-06 16:21 | 47.17471 | 27.39059 | 29388 ft | 394 kts | 285° |
| 2026-05-06 16:21 | 47.18049 | 27.35163 | 29770 ft | 395 kts | 285° |
| 2026-05-06 16:21 | 47.18637 | 27.31186 | 30154 ft | 397 kts | 284° |
| 2026-05-06 16:21 | 47.19226 | 27.27196 | 30535 ft | 399 kts | 284° |
| 2026-05-06 16:22 | 47.19810 | 27.23231 | 30917 ft | 400 kts | 284° |
| 2026-05-06 16:22 | 47.20401 | 27.19199 | 31283 ft | 402 kts | 284° |
| 2026-05-06 16:22 | 47.20982 | 27.15227 | 31647 ft | 403 kts | 284° |
| 2026-05-06 16:22 | 47.21576 | 27.11155 | 31994 ft | 404 kts | 284° |
| 2026-05-06 16:23 | 47.22166 | 27.07095 | 32322 ft | 406 kts | 284° |
| 2026-05-06 16:23 | 47.22755 | 27.03038 | 32645 ft | 407 kts | 284° |
| 2026-05-06 16:23 | 47.23365 | 26.98827 | 32933 ft | 410 kts | 284° |
| 2026-05-06 16:23 | 47.23973 | 26.94613 | 33273 ft | 411 kts | 284° |
| 2026-05-06 16:24 | 47.24571 | 26.90461 | 33568 ft | 413 kts | 284° |
| 2026-05-06 16:24 | 47.25179 | 26.86227 | 33903 ft | 414 kts | 284° |
| 2026-05-06 16:24 | 47.25787 | 26.81982 | 34214 ft | 415 kts | 284° |
| 2026-05-06 16:24 | 47.26386 | 26.77779 | 34457 ft | 418 kts | 284° |
| 2026-05-06 16:25 | 47.27001 | 26.73462 | 34769 ft | 418 kts | 284° |
| 2026-05-06 16:25 | 47.27610 | 26.69171 | 34995 ft | 421 kts | 284° |
| 2026-05-06 16:25 | 47.28205 | 26.64967 | 35241 ft | 422 kts | 284° |
| 2026-05-06 16:25 | 47.28814 | 26.60655 | 35529 ft | 422 kts | 284° |
| 2026-05-06 16:26 | 47.29422 | 26.56333 | 35707 ft | 425 kts | 284° |
| 2026-05-06 16:26 | 47.30027 | 26.52015 | 36007 ft | 424 kts | 284° |
| 2026-05-06 16:26 | 47.30629 | 26.47714 | 36388 ft | 421 kts | 284° |
| 2026-05-06 16:26 | 47.31217 | 26.43494 | 36704 ft | 421 kts | 284° |
| 2026-05-06 16:27 | 47.31812 | 26.39217 | 36987 ft | 421 kts | 284° |
| 2026-05-06 16:27 | 47.32404 | 26.34958 | 37291 ft | 421 kts | 283° |
| 2026-05-06 16:27 | 47.32996 | 26.30683 | 37578 ft | 421 kts | 283° |
| 2026-05-06 16:27 | 47.33572 | 26.26504 | 37857 ft | 421 kts | 283° |
| 2026-05-06 16:28 | 47.34163 | 26.22204 | 37991 ft | 423 kts | 283° |
| 2026-05-06 16:28 | 47.34741 | 26.17985 | 38003 ft | 427 kts | 283° |
| 2026-05-06 16:28 | 47.35916 | 26.09384 | 37995 ft | 430 kts | 283° |
| 2026-05-06 16:29 | 47.37084 | 26.00773 | 38011 ft | 427 kts | 283° |
| 2026-05-06 16:29 | 47.38232 | 25.92261 | 38014 ft | 427 kts | 283° |
| 2026-05-06 16:30 | 47.39191 | 25.85112 | 38009 ft | 427 kts | 283° |
| 2026-05-06 16:30 | 47.40520 | 25.75146 | 38007 ft | 426 kts | 283° |
| 2026-05-06 16:31 | 47.41659 | 25.66547 | 38027 ft | 427 kts | 283° |
| 2026-05-06 16:31 | 47.42782 | 25.58022 | 38034 ft | 425 kts | 283° |
| 2026-05-06 16:32 | 47.43901 | 25.49470 | 38049 ft | 426 kts | 283° |
| 2026-05-06 16:32 | 47.45016 | 25.40908 | 38045 ft | 425 kts | 283° |
| 2026-05-06 16:33 | 47.46118 | 25.32385 | 38041 ft | 425 kts | 282° |
| 2026-05-06 16:34 | 47.47759 | 25.19587 | 38032 ft | 425 kts | 282° |
| 2026-05-06 16:34 | 47.48851 | 25.11010 | 38036 ft | 423 kts | 282° |
| 2026-05-06 16:35 | 47.49925 | 25.02530 | 38046 ft | 423 kts | 282° |
| 2026-05-06 16:35 | 47.51176 | 24.92589 | 38049 ft | 423 kts | 282° |
| 2026-05-06 16:36 | 47.52074 | 24.85404 | 38040 ft | 423 kts | 282° |
| 2026-05-06 16:36 | 47.53133 | 24.76874 | 38034 ft | 423 kts | 282° |
| 2026-05-06 16:37 | 47.54178 | 24.68398 | 38028 ft | 422 kts | 282° |
| 2026-05-06 16:37 | 47.55222 | 24.59868 | 38012 ft | 422 kts | 282° |
| 2026-05-06 16:38 | 47.56256 | 24.51364 | 38008 ft | 421 kts | 282° |
| 2026-05-06 16:38 | 47.57285 | 24.42843 | 38009 ft | 419 kts | 282° |
| 2026-05-06 16:39 | 47.58302 | 24.34373 | 38014 ft | 420 kts | 281° |
| 2026-05-06 16:39 | 47.59311 | 24.25921 | 38019 ft | 419 kts | 281° |
| 2026-05-06 16:40 | 47.60314 | 24.17450 | 38008 ft | 419 kts | 281° |
| 2026-05-06 16:40 | 47.61307 | 24.09009 | 37992 ft | 417 kts | 281° |
| 2026-05-06 16:41 | 47.62291 | 24.00591 | 37978 ft | 417 kts | 281° |
| 2026-05-06 16:41 | 47.63275 | 23.92129 | 37975 ft | 417 kts | 281° |
| 2026-05-06 16:42 | 47.64246 | 23.83721 | 37978 ft | 417 kts | 281° |
| 2026-05-06 16:42 | 47.65216 | 23.75252 | 37981 ft | 416 kts | 281° |
| 2026-05-06 16:43 | 47.66173 | 23.66840 | 37976 ft | 416 kts | 281° |
| 2026-05-06 16:43 | 47.67130 | 23.58379 | 37976 ft | 416 kts | 281° |
| 2026-05-06 16:44 | 47.68076 | 23.49951 | 37961 ft | 415 kts | 281° |
| 2026-05-06 16:44 | 47.69012 | 23.41552 | 37955 ft | 415 kts | 280° |
| 2026-05-06 16:45 | 47.70101 | 23.31714 | 37947 ft | 416 kts | 279° |
| 2026-05-06 16:45 | 47.70875 | 23.24676 | 37939 ft | 415 kts | 280° |
| 2026-05-06 16:46 | 47.71793 | 23.16271 | 37939 ft | 414 kts | 279° |
| 2026-05-06 16:46 | 47.72709 | 23.07820 | 37935 ft | 414 kts | 279° |
| 2026-05-06 16:47 | 47.73620 | 22.99359 | 37931 ft | 414 kts | 279° |
| 2026-05-06 16:47 | 47.74516 | 22.90987 | 37931 ft | 413 kts | 279° |
| 2026-05-06 16:48 | 47.75412 | 22.82546 | 37924 ft | 413 kts | 279° |
| 2026-05-06 16:48 | 47.76299 | 22.74134 | 37925 ft | 414 kts | 279° |
| 2026-05-06 16:49 | 47.77177 | 22.65731 | 37916 ft | 412 kts | 279° |
| 2026-05-06 16:49 | 47.78067 | 22.57352 | 37909 ft | 413 kts | 281° |
| 2026-05-06 16:50 | 47.79753 | 22.49257 | 37920 ft | 412 kts | 297° |
| 2026-05-06 16:50 | 47.83070 | 22.42341 | 37918 ft | 417 kts | 310° |
| 2026-05-06 16:51 | 47.87438 | 22.36654 | 37916 ft | 421 kts | 322° |
| 2026-05-06 16:51 | 47.92407 | 22.32053 | 37911 ft | 422 kts | 326° |
| 2026-05-06 16:52 | 47.97498 | 22.27683 | 37917 ft | 423 kts | 326° |
| 2026-05-06 16:52 | 48.02558 | 22.23277 | 37922 ft | 422 kts | 325° |
| 2026-05-06 16:53 | 48.07612 | 22.18779 | 37915 ft | 424 kts | 325° |
| 2026-05-06 16:53 | 48.12626 | 22.14258 | 37912 ft | 423 kts | 325° |
| 2026-05-06 16:54 | 48.17667 | 22.09682 | 37912 ft | 423 kts | 325° |
| 2026-05-06 16:54 | 48.22668 | 22.05121 | 37911 ft | 425 kts | 324° |
| 2026-05-06 16:55 | 48.27744 | 22.00483 | 37902 ft | 425 kts | 324° |
| 2026-05-06 16:55 | 48.32798 | 21.95853 | 37901 ft | 425 kts | 324° |
| 2026-05-06 16:56 | 48.37835 | 21.91298 | 37894 ft | 425 kts | 327° |
| 2026-05-06 16:56 | 48.43115 | 21.87209 | 37894 ft | 427 kts | 330° |
| 2026-05-06 16:57 | 48.48489 | 21.83293 | 37892 ft | 428 kts | 330° |
| 2026-05-06 16:57 | 48.53859 | 21.79349 | 37887 ft | 428 kts | 329° |
| 2026-05-06 16:58 | 48.59210 | 21.75357 | 37887 ft | 429 kts | 329° |
| 2026-05-06 16:58 | 48.64548 | 21.71335 | 37883 ft | 428 kts | 329° |
| 2026-05-06 16:59 | 48.69880 | 21.67289 | 37885 ft | 430 kts | 329° |
| 2026-05-06 16:59 | 48.75184 | 21.63253 | 37885 ft | 429 kts | 329° |
| 2026-05-06 17:00 | 48.80509 | 21.59188 | 37884 ft | 429 kts | 329° |
| 2026-05-06 17:00 | 48.85835 | 21.55110 | 37891 ft | 430 kts | 329° |
| 2026-05-06 17:01 | 48.91179 | 21.51008 | 37892 ft | 429 kts | 329° |
| 2026-05-06 17:01 | 48.96473 | 21.46934 | 37892 ft | 430 kts | 329° |
| 2026-05-06 17:02 | 49.01821 | 21.42811 | 37896 ft | 430 kts | 329° |
| 2026-05-06 17:02 | 49.07139 | 21.38701 | 37895 ft | 431 kts | 329° |
| 2026-05-06 17:03 | 49.12469 | 21.34571 | 37884 ft | 431 kts | 328° |
| 2026-05-06 17:03 | 49.17818 | 21.30415 | 37877 ft | 431 kts | 328° |
| 2026-05-06 17:04 | 49.23177 | 21.26242 | 37882 ft | 431 kts | 328° |
| 2026-05-06 17:04 | 49.28482 | 21.22103 | 37882 ft | 431 kts | 328° |
| 2026-05-06 17:05 | 49.33803 | 21.17940 | 37891 ft | 430 kts | 328° |
| 2026-05-06 17:05 | 49.39131 | 21.13761 | 37883 ft | 432 kts | 328° |
| 2026-05-06 17:06 | 49.44477 | 21.09556 | 37880 ft | 432 kts | 328° |
| 2026-05-06 17:06 | 49.49786 | 21.05372 | 37872 ft | 432 kts | 328° |
| 2026-05-06 17:07 | 49.55119 | 21.01159 | 37863 ft | 433 kts | 328° |
| 2026-05-06 17:07 | 49.60487 | 20.96906 | 37855 ft | 434 kts | 328° |
| 2026-05-06 17:08 | 49.65853 | 20.92644 | 37853 ft | 435 kts | 328° |
| 2026-05-06 17:08 | 49.71205 | 20.88385 | 37841 ft | 435 kts | 328° |
| 2026-05-06 17:09 | 49.76539 | 20.84130 | 37831 ft | 435 kts | 327° |
| 2026-05-06 17:09 | 49.81945 | 20.79806 | 37820 ft | 437 kts | 327° |
| 2026-05-06 17:10 | 49.87321 | 20.75496 | 37777 ft | 435 kts | 328° |
| 2026-05-06 17:10 | 49.90067 | 20.73291 | 37435 ft | 431 kts | 327° |
| 2026-05-06 17:10 | 49.92705 | 20.71174 | 37113 ft | 424 kts | 327° |
| 2026-05-06 17:10 | 49.95317 | 20.69073 | 36811 ft | 422 kts | 327° |
| 2026-05-06 17:11 | 49.97959 | 20.66938 | 36534 ft | 426 kts | 327° |
| 2026-05-06 17:11 | 50.00627 | 20.64776 | 36295 ft | 429 kts | 327° |
| 2026-05-06 17:11 | 50.03263 | 20.62639 | 36058 ft | 429 kts | 327° |
| 2026-05-06 17:11 | 50.05955 | 20.60512 | 35824 ft | 431 kts | 329° |
| 2026-05-06 17:12 | 50.08734 | 20.58698 | 35588 ft | 437 kts | 336° |
| 2026-05-06 17:12 | 50.11747 | 20.57601 | 35347 ft | 446 kts | 348° |
| 2026-05-06 17:12 | 50.14843 | 20.57338 | 35117 ft | 451 kts | 355° |
| 2026-05-06 17:12 | 50.18001 | 20.57468 | 34879 ft | 455 kts | 358° |
| 2026-05-06 17:13 | 50.21172 | 20.57765 | 34646 ft | 456 kts | 359° |
| 2026-05-06 17:13 | 50.24314 | 20.58131 | 34382 ft | 455 kts | 359° |
| 2026-05-06 17:13 | 50.27521 | 20.58528 | 34105 ft | 453 kts | 360° |
| 2026-05-06 17:13 | 50.30634 | 20.58913 | 33839 ft | 450 kts | 360° |
| 2026-05-06 17:14 | 50.33752 | 20.59287 | 33575 ft | 449 kts | 360° |
| 2026-05-06 17:14 | 50.36862 | 20.59648 | 33287 ft | 449 kts | 360° |
| 2026-05-06 17:14 | 50.39959 | 20.59997 | 32751 ft | 448 kts | 360° |
| 2026-05-06 17:14 | 50.43047 | 20.60337 | 32217 ft | 445 kts | 360° |
| 2026-05-06 17:15 | 50.46101 | 20.60667 | 31693 ft | 443 kts | 0° |
| 2026-05-06 17:15 | 50.49194 | 20.60998 | 31158 ft | 443 kts | 0° |
| 2026-05-06 17:15 | 50.52242 | 20.61318 | 30640 ft | 446 kts | 0° |
| 2026-05-06 17:15 | 50.55341 | 20.61641 | 30103 ft | 449 kts | 0° |
| 2026-05-06 17:16 | 50.58468 | 20.61967 | 29560 ft | 450 kts | 0° |
| 2026-05-06 17:16 | 50.61584 | 20.62292 | 29021 ft | 451 kts | 0° |
| 2026-05-06 17:16 | 50.64676 | 20.62615 | 28483 ft | 453 kts | 0° |
| 2026-05-06 17:16 | 50.67829 | 20.62945 | 27943 ft | 453 kts | 1° |
| 2026-05-06 17:17 | 50.70948 | 20.63273 | 27410 ft | 454 kts | 0° |
| 2026-05-06 17:17 | 50.74117 | 20.63605 | 26872 ft | 455 kts | 1° |
| 2026-05-06 17:17 | 50.77311 | 20.63941 | 26327 ft | 456 kts | 1° |
| 2026-05-06 17:17 | 50.80457 | 20.64273 | 25789 ft | 455 kts | 1° |
| 2026-05-06 17:18 | 50.83579 | 20.64605 | 25256 ft | 449 kts | 1° |
| 2026-05-06 17:18 | 50.86690 | 20.64938 | 24710 ft | 443 kts | 0° |
| 2026-05-06 17:18 | 50.89742 | 20.65264 | 24170 ft | 438 kts | 0° |
| 2026-05-06 17:18 | 50.92753 | 20.65586 | 23639 ft | 433 kts | 0° |
| 2026-05-06 17:19 | 50.95720 | 20.65903 | 23113 ft | 428 kts | 0° |
| 2026-05-06 17:19 | 50.98656 | 20.66215 | 22589 ft | 423 kts | 0° |
| 2026-05-06 17:19 | 51.01598 | 20.66527 | 22057 ft | 419 kts | 0° |
| 2026-05-06 17:19 | 51.04499 | 20.66835 | 21531 ft | 415 kts | 0° |
| 2026-05-06 17:20 | 51.07370 | 20.67139 | 21007 ft | 411 kts | 0° |
| 2026-05-06 17:20 | 51.10111 | 20.67431 | 20499 ft | 407 kts | 0° |
| 2026-05-06 17:20 | 51.13022 | 20.67740 | 19960 ft | 404 kts | 0° |
| 2026-05-06 17:20 | 51.15808 | 20.68037 | 19451 ft | 400 kts | 0° |
| 2026-05-06 17:21 | 51.18554 | 20.68330 | 18939 ft | 396 kts | 0° |
| 2026-05-06 17:21 | 51.21298 | 20.68624 | 18427 ft | 393 kts | 0° |
| 2026-05-06 17:21 | 51.23996 | 20.68913 | 17922 ft | 390 kts | 0° |
| 2026-05-06 17:21 | 51.26666 | 20.69266 | 17425 ft | 388 kts | 3° |
| 2026-05-06 17:22 | 51.29336 | 20.69911 | 16923 ft | 386 kts | 9° |
| 2026-05-06 17:22 | 51.31918 | 20.70961 | 16438 ft | 384 kts | 14° |
| 2026-05-06 17:22 | 51.34432 | 20.72255 | 15926 ft | 381 kts | 17° |
| 2026-05-06 17:22 | 51.36941 | 20.73663 | 15421 ft | 378 kts | 18° |
| 2026-05-06 17:23 | 51.39377 | 20.75054 | 14937 ft | 375 kts | 18° |
| 2026-05-06 17:23 | 51.41830 | 20.76441 | 14437 ft | 372 kts | 17° |
| 2026-05-06 17:23 | 51.44236 | 20.77780 | 13949 ft | 369 kts | 17° |
| 2026-05-06 17:23 | 51.46674 | 20.79117 | 13461 ft | 365 kts | 17° |
| 2026-05-06 17:24 | 51.49025 | 20.80394 | 13020 ft | 351 kts | 17° |
| 2026-05-06 17:24 | 51.51315 | 20.81631 | 12679 ft | 347 kts | 17° |
| 2026-05-06 17:24 | 51.53568 | 20.82844 | 12296 ft | 344 kts | 17° |
| 2026-05-06 17:24 | 51.55823 | 20.84059 | 11932 ft | 341 kts | 17° |
| 2026-05-06 17:25 | 51.58084 | 20.85280 | 11562 ft | 341 kts | 17° |
| 2026-05-06 17:25 | 51.60309 | 20.86483 | 11210 ft | 338 kts | 17° |
| 2026-05-06 17:25 | 51.62511 | 20.87674 | 10839 ft | 334 kts | 17° |
| 2026-05-06 17:25 | 51.64707 | 20.88861 | 10452 ft | 330 kts | 16° |
| 2026-05-06 17:26 | 51.66856 | 20.90027 | 10103 ft | 327 kts | 16° |
| 2026-05-06 17:26 | 51.69002 | 20.91194 | 9739 ft | 323 kts | 16° |
| 2026-05-06 17:26 | 51.71126 | 20.92327 | 9334 ft | 317 kts | 16° |
| 2026-05-06 17:26 | 51.73183 | 20.93407 | 8969 ft | 305 kts | 16° |
| 2026-05-06 17:27 | 51.75158 | 20.94434 | 8635 ft | 297 kts | 14° |
| 2026-05-06 17:27 | 51.77156 | 20.95133 | 8244 ft | 293 kts | 1° |
| 2026-05-06 17:27 | 51.79134 | 20.94741 | 7869 ft | 284 kts | 335° |
| 2026-05-06 17:27 | 51.80888 | 20.93401 | 7518 ft | 279 kts | 328° |
| 2026-05-06 17:28 | 51.82584 | 20.91876 | 7144 ft | 278 kts | 327° |
| 2026-05-06 17:28 | 51.84286 | 20.90365 | 6776 ft | 278 kts | 329° |
| 2026-05-06 17:28 | 51.86098 | 20.89281 | 6386 ft | 283 kts | 350° |
| 2026-05-06 17:28 | 51.88024 | 20.89621 | 6026 ft | 285 kts | 22° |
| 2026-05-06 17:29 | 51.89612 | 20.91441 | 5776 ft | 275 kts | 51° |
| 2026-05-06 17:29 | 51.90583 | 20.93988 | 5650 ft | 260 kts | 65° |
| 2026-05-06 17:29 | 51.91360 | 20.96576 | 5522 ft | 258 kts | 66° |
| 2026-05-06 17:29 | 51.91950 | 20.99272 | 5398 ft | 253 kts | 85° |
| 2026-05-06 17:30 | 51.91708 | 21.02025 | 5272 ft | 245 kts | 121° |
| 2026-05-06 17:30 | 51.90614 | 21.04057 | 5163 ft | 238 kts | 150° |
| 2026-05-06 17:30 | 51.89192 | 21.05294 | 5046 ft | 228 kts | 153° |
| 2026-05-06 17:30 | 51.88077 | 21.07010 | 4877 ft | 229 kts | 118° |
| 2026-05-06 17:31 | 51.87842 | 21.09544 | 4674 ft | 232 kts | 77° |
| 2026-05-06 17:31 | 51.88656 | 21.11733 | 4479 ft | 232 kts | 37° |
| 2026-05-06 17:31 | 51.90062 | 21.12992 | 4289 ft | 231 kts | 20° |
| 2026-05-06 17:31 | 51.91552 | 21.13852 | 4066 ft | 229 kts | 15° |
| 2026-05-06 17:32 | 51.93129 | 21.14486 | 3875 ft | 242 kts | 7° |
| 2026-05-06 17:32 | 51.94829 | 21.14700 | 3652 ft | 244 kts | 356° |
| 2026-05-06 17:32 | 51.96495 | 21.14443 | 3439 ft | 240 kts | 347° |
| 2026-05-06 17:32 | 51.98043 | 21.13604 | 3213 ft | 235 kts | 324° |
| 2026-05-06 17:33 | 51.99290 | 21.11929 | 3006 ft | 228 kts | 317° |
| 2026-05-06 17:33 | 52.00547 | 21.10504 | 2956 ft | 215 kts | 329° |
| 2026-05-06 17:33 | 52.01842 | 21.09441 | 2976 ft | 201 kts | 332° |
| 2026-05-06 17:33 | 52.03061 | 21.08445 | 2978 ft | 194 kts | 329° |
| 2026-05-06 17:34 | 52.04264 | 21.07397 | 2858 ft | 197 kts | 329° |
| 2026-05-06 17:34 | 52.05482 | 21.06331 | 2548 ft | 201 kts | 329° |
| 2026-05-06 17:34 | 52.06707 | 21.05276 | 2278 ft | 202 kts | 329° |
| 2026-05-06 17:34 | 52.07947 | 21.04205 | 2000 ft | 195 kts | 329° |
| 2026-05-06 17:35 | 52.09107 | 21.03200 | 1750 ft | 185 kts | 329° |
| 2026-05-06 17:35 | 52.10216 | 21.02236 | 1511 ft | 176 kts | 329° |
| 2026-05-06 17:35 | 52.11274 | 21.01325 | 1283 ft | 167 kts | 329° |
| 2026-05-06 17:36 | 52.13284 | 20.99573 | 833 ft | 170 kts | 330° |
| 2026-05-06 17:36 | 52.14320 | 20.98687 | 608 ft | 164 kts | 330° |
| 2026-05-06 17:36 | 52.15318 | 20.97823 | 358 ft | 154 kts | 330° |
| 2026-05-06 17:36 | 52.16167 | 20.97063 | 352 ft | 125 kts | 331° |
| 2026-05-06 17:37 | 52.16650 | 20.96642 | 352 ft | 40 kts | 331° |
| 2026-05-06 17:37 | 52.16886 | 20.96518 | 352 ft | 35 kts | 355° |
| 2026-05-06 17:37 | 52.17014 | 20.96516 | 352 ft | 6 kts | 1° |
| 2026-05-06 17:37 | 52.17021 | 20.96516 | 352 ft | 0 kts | 1° |
| 2026-05-06 17:38 | 52.17029 | 20.96516 | 352 ft | 4 kts | 1° |
| 2026-05-06 17:38 | 52.17083 | 20.96557 | 352 ft | 13 kts | 47° |
| 2026-05-06 17:38 | 52.17139 | 20.96722 | 352 ft | 10 kts | 61° |
| 2026-05-06 17:38 | 52.17186 | 20.96801 | 352 ft | 9 kts | 3° |
| 2026-05-06 17:39 | 52.17220 | 20.96810 | 352 ft | 4 kts | 42° |
| 2026-05-06 17:39 | 52.17236 | 20.96851 | 352 ft | 3 kts | 64° |
| 2026-05-06 17:39 | 52.17247 | 20.96885 | 352 ft | 2 kts | 62° |
| 2026-05-06 17:39 | 52.17255 | 20.96910 | 352 ft | 2 kts | 62° |
| 2026-05-06 17:40 | 52.17258 | 20.96919 | 352 ft | 0 kts | 62° |